createdAt,value
2022-12-16T00:09:43.365Z,96143.22
2022-12-16T00:19:44.825Z,96151.19
2022-12-16T00:29:46.298Z,96160.06
2022-12-16T00:39:47.784Z,96163.91
2022-12-16T00:49:49.223Z,96153.88
2022-12-16T00:59:50.667Z,96176.81
2022-12-16T01:09:52.572Z,96185.44
2022-12-16T01:19:56.446Z,96184.09
2022-12-16T01:29:57.927Z,96190.47
2022-12-16T01:39:59.353Z,96185.88
2022-12-16T01:50:15.374Z,96178.81
2022-12-16T02:00:17.116Z,96173.50
2022-12-16T02:10:21.120Z,96188.69
2022-12-16T02:20:44.831Z,96190.63
2022-12-16T02:31:08.626Z,96230.09
2022-12-16T02:41:21.760Z,96229.03
2022-12-16T02:51:26.890Z,96213.16
2022-12-16T03:01:48.027Z,96212.25
2022-12-16T03:11:52.139Z,96228.22
2022-12-16T03:22:12.645Z,96241.28
2022-12-16T03:32:23.481Z,96243.34
2022-12-16T03:42:25.575Z,96253.03
2022-12-16T03:52:27.077Z,96250.28
2022-12-16T04:02:28.605Z,96267.03
2022-12-16T04:12:48.847Z,96260.84
2022-12-16T04:23:08.730Z,96279.72
2022-12-16T04:33:32.485Z,96289.00
2022-12-16T04:43:52.843Z,96287.66
2022-12-16T04:54:13.192Z,96281.06
2022-12-16T05:04:33.905Z,96306.28
2022-12-16T05:14:54.555Z,96337.38
2022-12-16T05:25:14.523Z,96347.84
2022-12-16T05:35:34.457Z,96359.13
2022-12-16T05:45:54.401Z,96364.19
2022-12-16T05:56:15.041Z,96377.13
2022-12-16T06:06:34.931Z,96380.75
2022-12-16T06:16:55.007Z,96396.59
2022-12-16T06:27:15.164Z,96406.31
2022-12-16T06:37:35.726Z,96405.75
2022-12-16T06:47:57.898Z,96439.13
2022-12-16T06:58:18.424Z,96450.28
2022-12-16T07:08:38.341Z,96497.25
2022-12-16T07:18:58.321Z,96518.94
2022-12-16T07:29:18.223Z,96549.59
2022-12-16T07:39:38.714Z,96547.19
2022-12-16T07:49:59.001Z,96564.31
2022-12-16T08:00:19.367Z,96582.13
2022-12-16T08:10:39.441Z,96590.78
2022-12-16T08:20:59.369Z,96607.94
2022-12-16T08:31:19.344Z,96601.75
2022-12-16T08:41:39.692Z,96603.88
2022-12-16T08:51:59.751Z,96622.72
2022-12-16T09:02:20.109Z,96639.59
2022-12-16T09:12:40.165Z,96645.84
2022-12-16T09:23:00.115Z,96682.94
2022-12-16T09:33:21.156Z,96706.97
2022-12-16T09:44:06.536Z,96697.41
2022-12-16T09:54:30.923Z,96701.69
2022-12-16T10:04:50.900Z,96709.53
2022-12-16T10:15:33.438Z,96714.28
2022-12-16T10:26:02.908Z,96722.75
2022-12-16T10:36:24.420Z,96730.81
2022-12-16T10:46:48.073Z,96740.03
2022-12-16T10:57:24.153Z,96730.75
2022-12-16T11:07:50.000Z,96755.88
2022-12-16T11:18:24.321Z,96756.53
2022-12-16T11:28:44.013Z,96761.75
2022-12-16T11:39:09.004Z,96761.81
2022-12-16T11:49:44.190Z,96765.91
2022-12-16T12:00:11.566Z,96786.44
2022-12-16T12:10:46.712Z,96799.22
2022-12-16T12:21:48.507Z,96797.91
2022-12-16T12:32:21.986Z,96787.66
2022-12-16T12:42:49.833Z,96806.09
2022-12-16T12:53:35.839Z,96811.91
2022-12-16T13:04:15.058Z,96828.97
2022-12-16T13:14:50.466Z,96848.47
2022-12-16T13:25:12.375Z,96853.03
2022-12-16T13:35:32.137Z,96863.47
2022-12-16T13:45:54.947Z,96880.50
2022-12-16T13:56:18.448Z,96893.88
2022-12-16T14:06:42.946Z,96904.31
2022-12-16T14:17:19.381Z,96923.72
2022-12-16T14:27:40.786Z,96943.44
2022-12-16T14:38:00.702Z,96959.63
2022-12-16T14:48:21.004Z,96975.03
2022-12-16T14:58:42.854Z,96992.38
2022-12-16T15:09:15.276Z,97005.44
2022-12-16T15:19:39.844Z,97013.66
2022-12-16T15:30:00.825Z,97027.06
2022-12-16T15:40:21.910Z,97042.66
2022-12-16T15:50:45.491Z,97057.69
2022-12-16T16:01:16.589Z,97077.50
2022-12-16T16:11:37.045Z,97094.59
2022-12-16T16:21:57.068Z,97109.81
2022-12-16T16:32:17.131Z,97124.50
2022-12-16T16:42:37.451Z,97143.25
2022-12-16T16:52:57.388Z,97157.34
2022-12-16T17:03:17.381Z,97159.53
2022-12-16T17:13:37.538Z,97175.13
2022-12-16T17:23:58.584Z,97193.28
2022-12-16T17:34:18.577Z,97211.47
2022-12-16T17:44:38.628Z,97235.13
2022-12-16T17:54:58.964Z,97238.00
2022-12-16T18:05:18.890Z,97239.84
2022-12-16T18:15:41.375Z,97245.31
2022-12-16T18:26:15.032Z,97268.50
2022-12-16T18:36:35.325Z,97290.22
2022-12-16T18:46:55.265Z,97298.22
2022-12-16T18:57:18.296Z,97313.66
2022-12-16T19:07:38.182Z,97326.47
2022-12-16T19:17:58.237Z,97339.91
2022-12-16T19:28:18.468Z,97348.94
2022-12-16T19:38:40.103Z,97352.50
2022-12-16T19:49:00.439Z,97361.91
2022-12-16T19:59:20.655Z,97377.09
2022-12-16T20:09:40.846Z,97389.13
2022-12-16T20:20:00.981Z,97406.31
2022-12-16T20:30:22.180Z,97422.63
2022-12-16T20:40:42.161Z,97447.03
2022-12-16T20:51:02.405Z,97471.13
2022-12-16T21:01:22.943Z,97473.06
2022-12-16T21:11:43.123Z,97491.09
2022-12-16T21:22:03.568Z,97509.28
2022-12-16T21:32:23.479Z,97526.63
2022-12-16T21:42:44.517Z,97534.63
2022-12-16T21:53:06.789Z,97543.69
2022-12-16T22:03:26.750Z,97566.13
2022-12-16T22:13:49.105Z,97586.38
2022-12-16T22:24:09.448Z,97603.44
2022-12-16T22:34:29.628Z,97626.25
2022-12-16T22:44:49.576Z,97629.88
2022-12-16T22:55:09.717Z,97637.34
2022-12-16T23:05:31.464Z,97637.72
2022-12-16T23:15:52.008Z,97660.97
2022-12-16T23:26:17.386Z,97663.06
2022-12-16T23:36:37.745Z,97655.47
2022-12-16T23:46:58.151Z,97663.19
2022-12-16T23:57:18.345Z,97671.88
